Time;durP1;ratioP1;P1;durP2;ratioP2;P2;SDS_P1;SDS_P2;PMS_P1;PMS_P2;Temp;Humidity;BMP_temperature;BMP_pressure;BME280_temperature;BME280_humidity;BME280_pressure;Samples;Min_cycle;Max_cycle;Signal;HPM_P1;HPM_P2
2021/05/21 00:01:51;;;;;;;1.45;1.05;;;;;;;19.54;51.63;100426.63;5023679;28;20041;-49
2021/05/21 00:04:17;;;;;;;1.67;1.17;;;;;;;19.53;51.62;100423.16;5022923;28;20571;-47
2021/05/21 00:06:42;;;;;;;1.55;1.35;;;;;;;19.54;51.91;100410.47;5024172;28;20035;-48
2021/05/21 00:09:07;;;;;;;1.77;1.35;;;;;;;19.55;51.87;100413.94;5005262;28;20037;-48
2021/05/21 00:11:33;;;;;;;2.33;1.05;;;;;;;19.52;51.77;100410.84;5023395;28;20037;-48
2021/05/21 00:13:58;;;;;;;1.00;1.00;;;;;;;19.50;51.74;100409.63;5005573;28;20557;-49
2021/05/21 00:16:23;;;;;;;1.73;1.20;;;;;;;19.51;52.06;100406.56;5004433;28;20041;-48
2021/05/21 00:18:51;;;;;;;0.90;0.90;;;;;;;19.52;52.11;100397.34;5023801;28;20029;-47
2021/05/21 00:21:16;;;;;;;3.85;1.10;;;;;;;19.50;51.76;100393.44;5022862;28;20049;-48
2021/05/21 00:23:41;;;;;;;2.33;1.42;;;;;;;19.44;51.58;100389.47;5023336;28;20079;-51
2021/05/21 00:26:07;;;;;;;3.22;1.10;;;;;;;19.45;51.59;100382.94;5022767;28;20043;-46
2021/05/21 00:28:32;;;;;;;2.38;1.20;;;;;;;19.44;51.34;100392.94;5002165;28;20431;-51
2021/05/21 00:30:58;;;;;;;1.67;1.05;;;;;;;19.44;51.66;100384.84;5023285;28;20049;-46
2021/05/21 00:33:23;;;;;;;1.23;1.17;;;;;;;19.45;51.68;100386.41;5023550;28;20430;-47
2021/05/21 00:35:48;;;;;;;1.23;1.10;;;;;;;19.46;51.68;100374.50;5022358;28;20043;-51
2021/05/21 00:38:14;;;;;;;2.67;1.38;;;;;;;19.46;51.81;100376.41;5023078;28;20033;-47
2021/05/21 00:40:39;;;;;;;1.65;1.13;;;;;;;19.43;51.46;100375.19;5025578;28;20037;-49
2021/05/21 00:43:04;;;;;;;1.50;1.00;;;;;;;19.45;51.63;100367.53;5022672;28;20043;-49
2021/05/21 00:45:30;;;;;;;2.88;1.20;;;;;;;19.44;51.37;100362.50;5022955;28;20392;-47
2021/05/21 00:47:55;;;;;;;1.95;1.35;;;;;;;19.43;51.38;100369.81;5022866;28;20131;-48
2021/05/21 00:50:20;;;;;;;3.00;1.35;;;;;;;19.42;51.80;100362.09;5022647;28;20064;-46
2021/05/21 00:52:46;;;;;;;1.27;1.08;;;;;;;19.41;51.48;100358.63;5022155;28;20765;-48
2021/05/21 00:55:11;;;;;;;2.95;1.52;;;;;;;19.40;51.40;100345.47;5023223;28;20033;-47
2021/05/21 00:57:37;;;;;;;3.33;1.25;;;;;;;19.37;51.57;100335.41;4987660;28;20384;-48
2021/05/21 01:00:06;;;;;;;1.55;1.10;;;;;;;19.35;51.77;100341.13;5022911;28;20030;-47
2021/05/21 01:02:31;;;;;;;2.70;1.27;;;;;;;19.36;51.81;100333.81;5004690;28;20116;-47
2021/05/21 01:04:56;;;;;;;1.33;1.20;;;;;;;19.37;51.82;100330.75;5023324;28;20052;-46
2021/05/21 01:07:22;;;;;;;3.35;1.27;;;;;;;19.38;51.64;100326.19;5022243;28;20484;-47
2021/05/21 01:09:47;;;;;;;3.60;0.90;;;;;;;19.35;51.78;100327.66;5022790;28;20037;-47
2021/05/21 01:12:12;;;;;;;2.20;1.05;;;;;;;19.35;51.42;100324.97;5003874;28;20438;-50
2021/05/21 01:14:48;;;;;;;2.92;1.17;;;;;;;19.34;51.79;100318.00;5022830;28;20043;-48
2021/05/21 01:17:13;;;;;;;4.00;1.30;;;;;;;19.33;51.57;100313.75;5022379;28;20037;-48
2021/05/21 01:19:39;;;;;;;1.40;1.30;;;;;;;19.33;51.94;100308.38;5022947;28;20794;-45
2021/05/21 01:22:04;;;;;;;2.25;1.30;;;;;;;19.36;51.98;100304.97;5003993;28;20080;-48
2021/05/21 01:24:30;;;;;;;2.13;1.08;;;;;;;19.36;51.65;100314.97;5017037;28;20034;-48
2021/05/21 01:26:58;;;;;;;4.50;1.20;;;;;;;19.35;51.54;100316.88;5040761;28;20072;-47
2021/05/21 01:29:23;;;;;;;1.27;1.02;;;;;;;19.32;51.69;100300.63;5042226;28;20045;-50
2021/05/21 01:31:48;;;;;;;2.08;1.30;;;;;;;19.29;52.07;100304.81;5041901;28;20062;-50
2021/05/21 01:34:14;;;;;;;3.53;1.17;;;;;;;19.28;52.05;100308.66;5041977;28;20041;-50
2021/05/21 01:36:40;;;;;;;4.00;1.38;;;;;;;19.23;51.88;100300.84;5023876;28;20047;-51
2021/05/21 01:39:13;;;;;;;3.88;1.35;;;;;;;19.20;51.73;100311.53;5024147;28;20114;-55
2021/05/21 01:41:39;;;;;;;2.17;1.13;;;;;;;19.18;52.06;100319.97;5041676;28;20060;-50
2021/05/21 01:44:05;;;;;;;1.95;1.20;;;;;;;19.15;51.92;100344.94;5041466;28;20436;-51
2021/05/21 01:46:31;;;;;;;3.03;1.30;;;;;;;19.10;52.08;100339.03;5041812;28;20033;-51
2021/05/21 01:48:56;;;;;;;3.97;1.30;;;;;;;19.12;52.43;100345.63;5023718;28;20041;-50
2021/05/21 01:51:21;;;;;;;3.45;1.63;;;;;;;19.02;52.83;100340.75;5022924;28;20247;-51
2021/05/21 01:53:47;;;;;;;1.75;1.40;;;;;;;19.02;52.95;100338.06;5041169;28;20040;-53
2021/05/21 01:56:12;;;;;;;2.03;1.50;;;;;;;19.05;53.00;100340.06;5040835;28;20045;-52
2021/05/21 01:58:38;;;;;;;1.88;1.10;;;;;;;19.06;53.42;100343.53;5040104;28;20047;-54
2021/05/21 02:01:03;;;;;;;2.53;1.42;;;;;;;19.06;52.86;100328.16;5034026;28;20045;-53
2021/05/21 02:03:29;;;;;;;2.45;1.20;;;;;;;19.11;52.73;100322.50;5021193;28;20450;-53
2021/05/21 02:05:54;;;;;;;2.10;1.45;;;;;;;19.15;52.71;100320.69;5020768;28;20049;-51
2021/05/21 02:08:26;;;;;;;3.53;1.92;;;;;;;19.15;53.07;100317.19;5034279;28;20572;-53
2021/05/21 02:10:52;;;;;;;4.50;1.85;;;;;;;19.16;53.02;100307.97;5041254;28;20040;-52
2021/05/21 02:13:18;;;;;;;5.60;1.80;;;;;;;19.14;53.05;100302.16;5040210;28;20041;-51
2021/05/21 02:15:43;;;;;;;4.32;1.42;;;;;;;19.16;52.92;100311.44;5007435;28;20053;-49
2021/05/21 02:18:09;;;;;;;2.88;1.40;;;;;;;19.19;53.01;100304.56;5008308;28;20463;-52
2021/05/21 02:20:35;;;;;;;3.90;1.67;;;;;;;19.16;53.11;100308.75;5041445;28;20189;-51
2021/05/21 02:23:00;;;;;;;4.90;2.03;;;;;;;19.11;53.23;100298.25;5045753;28;20082;-50
2021/05/21 02:25:25;;;;;;;5.43;1.83;;;;;;;19.03;53.52;100296.53;5038885;28;20561;-50
2021/05/21 02:27:51;;;;;;;4.75;1.80;;;;;;;19.08;53.38;100292.78;5025240;28;20041;-50
2021/05/21 02:30:16;;;;;;;3.75;2.10;;;;;;;19.11;53.36;100295.56;5025242;28;20033;-50
2021/05/21 02:32:42;;;;;;;4.38;2.10;;;;;;;19.11;53.39;100297.47;5044896;28;20090;-46
2021/05/21 02:35:08;;;;;;;6.00;2.55;;;;;;;18.99;53.64;100284.16;5027659;28;20082;-50
2021/05/21 02:37:33;;;;;;;6.32;2.63;;;;;;;19.02;53.38;100289.59;5044391;28;20471;-49
2021/05/21 02:39:59;;;;;;;6.35;2.30;;;;;;;19.07;53.34;100304.72;5044930;28;20053;-51
2021/05/21 02:42:24;;;;;;;5.93;2.00;;;;;;;19.05;53.54;100294.28;5044176;28;20045;-52
2021/05/21 02:44:50;;;;;;;5.22;2.40;;;;;;;19.04;53.58;100295.41;5045162;28;20025;-46
2021/05/21 02:47:15;;;;;;;4.78;2.35;;;;;;;18.97;53.55;100292.56;5045057;28;20047;-54
2021/05/21 02:49:41;;;;;;;6.70;2.45;;;;;;;18.96;53.76;100293.72;5044694;28;20040;-51
2021/05/21 02:52:06;;;;;;;7.20;2.38;;;;;;;18.91;53.74;100280.50;5044420;28;20041;-52
2021/05/21 02:54:31;;;;;;;5.32;2.42;;;;;;;18.89;54.22;100285.44;5044538;28;20682;-52
2021/05/21 02:56:57;;;;;;;6.95;2.67;;;;;;;18.93;53.86;100281.69;5045077;28;20051;-55
2021/05/21 02:59:22;;;;;;;7.32;2.70;;;;;;;18.95;53.85;100281.34;5044562;28;20032;-54
2021/05/21 03:01:48;;;;;;;4.57;2.10;;;;;;;18.96;53.70;100266.78;5026477;28;20033;-55
2021/05/21 03:04:13;;;;;;;4.88;2.75;;;;;;;18.97;53.81;100271.00;5037202;28;20044;-56
2021/05/21 03:06:38;;;;;;;6.88;2.33;;;;;;;18.99;53.64;100262.59;5024661;28;20033;-55
2021/05/21 03:09:04;;;;;;;11.43;2.55;;;;;;;18.98;53.52;100259.13;5024580;28;20063;-55
2021/05/21 03:11:29;;;;;;;5.85;2.38;;;;;;;18.99;53.53;100249.91;5024849;28;20037;-55
2021/05/21 03:13:54;;;;;;;6.65;2.63;;;;;;;18.99;53.59;100251.84;5024256;28;20049;-56
2021/05/21 03:16:20;;;;;;;6.35;2.40;;;;;;;18.99;53.70;100243.75;5023826;28;20037;-55
2021/05/21 03:18:45;;;;;;;6.18;2.40;;;;;;;19.01;53.80;100241.47;5024651;28;20041;-56
2021/05/21 03:21:10;;;;;;;10.50;2.97;;;;;;;19.02;53.60;100241.13;5016331;28;20095;-55
2021/05/21 03:23:36;;;;;;;4.35;1.92;;;;;;;19.02;53.79;100243.81;5040894;28;20474;-55
2021/05/21 03:26:01;;;;;;;4.40;1.80;;;;;;;19.01;53.66;100244.97;5024149;28;20078;-54
2021/05/21 03:28:27;;;;;;;6.22;2.75;;;;;;;19.00;53.95;100234.53;5044423;28;20045;-53
2021/05/21 03:30:52;;;;;;;5.35;2.20;;;;;;;19.02;54.01;100237.63;5026387;28;20055;-52
2021/05/21 03:33:17;;;;;;;5.25;2.55;;;;;;;18.97;54.20;100237.91;5043446;28;20036;-53
2021/05/21 03:35:43;;;;;;;4.88;2.45;;;;;;;18.97;53.91;100233.31;5044703;28;20035;-54
2021/05/21 03:38:08;;;;;;;7.47;2.30;;;;;;;18.99;53.95;100228.34;5042737;28;20582;-55
2021/05/21 03:40:34;;;;;;;6.35;2.80;;;;;;;18.95;54.08;100219.44;5043978;28;20040;-55
2021/05/21 03:43:00;;;;;;;5.20;2.40;;;;;;;18.90;53.92;100220.50;5043316;28;20790;-56
2021/05/21 03:45:25;;;;;;;4.40;2.63;;;;;;;18.94;53.86;100213.25;5026440;28;20052;-54
2021/05/21 03:47:50;;;;;;;8.98;2.70;;;;;;;18.96;53.95;100204.84;5023903;28;20041;-55
2021/05/21 03:50:19;;;;;;;19.23;3.25;;;;;;;18.96;53.85;100207.53;5023180;28;20046;-54
2021/05/21 03:52:44;;;;;;;5.30;2.53;;;;;;;18.92;53.82;100204.75;5023922;28;20033;-55
2021/05/21 03:55:10;;;;;;;4.55;2.33;;;;;;;18.96;53.95;100199.47;5033174;28;20503;-54
2021/05/21 03:57:36;;;;;;;6.07;2.75;;;;;;;18.93;54.00;100195.53;5043184;28;20032;-55
2021/05/21 04:00:03;;;;;;;5.45;2.47;;;;;;;18.94;54.03;100197.09;5042525;28;20029;-54
2021/05/21 04:02:28;;;;;;;7.05;2.60;;;;;;;18.86;53.97;100195.41;5026285;28;20048;-55
2021/05/21 04:04:54;;;;;;;9.98;2.53;;;;;;;18.83;54.17;100184.53;5025264;28;20033;-56
2021/05/21 04:07:19;;;;;;;9.50;3.00;;;;;;;18.81;54.09;100187.59;5028797;28;20052;-56
2021/05/21 04:09:44;;;;;;;5.88;2.20;;;;;;;18.85;54.10;100188.44;5023791;28;20046;-55
2021/05/21 04:12:10;;;;;;;5.40;2.58;;;;;;;18.88;53.91;100187.75;5021994;28;20492;-55
2021/05/21 04:14:35;;;;;;;5.45;2.42;;;;;;;18.85;53.97;100183.06;5005996;28;20091;-56
2021/05/21 04:17:01;;;;;;;7.10;2.60;;;;;;;18.84;53.81;100181.50;5016365;28;20086;-54
2021/05/21 04:19:26;;;;;;;8.77;3.10;;;;;;;18.82;53.91;100167.59;5015084;28;20064;-55
2021/05/21 04:21:51;;;;;;;6.15;2.70;;;;;;;18.78;53.74;100171.38;5013301;28;20029;-54
2021/05/21 04:24:17;;;;;;;10.15;3.03;;;;;;;18.77;53.85;100169.81;5015928;28;20510;-54
2021/05/21 04:26:42;;;;;;;5.95;2.78;;;;;;;18.76;54.08;100169.03;5008839;28;20041;-53
2021/05/21 04:29:07;;;;;;;5.78;2.45;;;;;;;18.74;54.19;100165.91;5011262;28;20851;-54
2021/05/21 04:31:33;;;;;;;9.45;2.95;;;;;;;18.63;53.94;100172.19;4997384;28;20496;-55
2021/05/21 04:33:58;;;;;;;10.48;3.03;;;;;;;18.68;53.96;100170.03;5014522;28;20067;-54
2021/05/21 04:36:23;;;;;;;8.98;3.10;;;;;;;18.72;54.07;100167.38;5014262;28;20033;-54
2021/05/21 04:38:49;;;;;;;11.43;3.58;;;;;;;18.69;54.05;100176.16;5012682;28;20395;-54
2021/05/21 04:41:14;;;;;;;12.10;2.97;;;;;;;18.72;54.05;100168.16;5013582;28;20040;-55
2021/05/21 04:43:40;;;;;;;6.47;2.78;;;;;;;18.72;54.00;100167.38;5009863;28;20037;-55
2021/05/21 04:46:06;;;;;;;10.82;2.95;;;;;;;18.70;54.00;100158.88;5009388;28;20038;-54
2021/05/21 04:48:31;;;;;;;7.22;2.95;;;;;;;18.75;53.85;100167.47;4995194;28;20034;-55
2021/05/21 04:50:57;;;;;;;13.45;2.70;;;;;;;18.78;54.49;100160.59;5007107;28;20183;-55
2021/05/21 04:53:23;;;;;;;7.10;2.60;;;;;;;18.78;53.99;100157.91;5005171;28;20050;-53
2021/05/21 04:55:48;;;;;;;9.52;3.20;;;;;;;18.80;53.90;100163.72;5007704;28;20030;-54
2021/05/21 04:58:13;;;;;;;7.38;2.58;;;;;;;18.81;53.89;100154.50;4995441;28;20445;-56
2021/05/21 05:00:40;;;;;;;8.70;2.60;;;;;;;18.79;53.77;100157.56;5005959;28;20045;-56
2021/05/21 05:03:09;;;;;;;8.63;3.00;;;;;;;18.76;53.98;100155.59;5026765;28;20072;-56
2021/05/21 05:05:34;;;;;;;6.38;2.65;;;;;;;18.72;53.92;100152.03;5005815;28;20106;-57
2021/05/21 05:08:00;;;;;;;15.52;3.42;;;;;;;18.71;54.10;100155.88;5012357;28;20034;-56
2021/05/21 05:10:25;;;;;;;10.27;3.58;;;;;;;18.75;54.08;100158.59;5023571;28;20526;-57
2021/05/21 05:12:52;;;;;;;8.45;2.47;;;;;;;18.76;54.31;100152.09;4996494;28;20033;-56
2021/05/21 05:15:18;;;;;;;8.00;2.90;;;;;;;18.73;54.37;100139.34;5002615;28;20095;-57
2021/05/21 05:17:43;;;;;;;8.90;2.47;;;;;;;18.77;54.76;100142.91;5010406;28;20411;-56
2021/05/21 05:20:09;;;;;;;15.00;3.55;;;;;;;18.80;55.82;100131.41;5008795;28;20034;-57
2021/05/21 05:22:34;;;;;;;12.23;3.50;;;;;;;18.76;55.94;100135.97;5004700;28;20049;-57
2021/05/21 05:25:00;;;;;;;9.35;2.80;;;;;;;18.77;55.49;100134.84;4997776;28;20042;-57
2021/05/21 05:27:25;;;;;;;10.23;2.90;;;;;;;18.79;55.66;100130.66;5000999;28;20080;-55
2021/05/21 05:29:51;;;;;;;12.40;3.00;;;;;;;18.78;55.51;100131.78;5003004;28;20038;-55
2021/05/21 05:32:16;;;;;;;9.25;2.97;;;;;;;18.76;54.85;100125.97;4998376;28;20045;-58
2021/05/21 05:34:41;;;;;;;7.10;2.88;;;;;;;18.78;54.95;100120.22;5000604;28;20045;-56
2021/05/21 05:37:07;;;;;;;7.25;2.35;;;;;;;18.75;55.20;100127.09;5003766;28;20095;-55
2021/05/21 05:39:32;;;;;;;10.43;2.63;;;;;;;18.80;55.04;100126.03;5023874;28;20410;-55
2021/05/21 05:41:57;;;;;;;8.63;3.10;;;;;;;18.74;54.85;100104.00;5020382;28;20044;-56
2021/05/21 05:44:23;;;;;;;11.57;3.17;;;;;;;18.75;54.89;100105.56;5006212;28;20042;-55
2021/05/21 05:46:48;;;;;;;5.53;2.78;;;;;;;18.78;54.58;100114.84;4994901;28;20033;-56
2021/05/21 05:49:13;;;;;;;17.08;3.28;;;;;;;18.69;54.47;100103.50;5021814;28;20044;-56
2021/05/21 05:51:40;;;;;;;7.22;2.47;;;;;;;18.73;54.26;100109.75;5012701;28;20037;-56
2021/05/21 05:54:05;;;;;;;11.57;2.88;;;;;;;18.69;54.17;100092.72;5015054;28;20045;-55
2021/05/21 05:56:31;;;;;;;8.70;2.72;;;;;;;18.76;54.07;100098.28;5001304;28;20037;-54
2021/05/21 05:58:56;;;;;;;10.98;3.13;;;;;;;18.74;53.76;100095.16;4999788;28;20059;-56
2021/05/21 06:01:21;;;;;;;10.05;3.00;;;;;;;18.68;53.60;100093.88;5015977;28;20034;-56
2021/05/21 06:03:47;;;;;;;5.97;2.67;;;;;;;18.61;53.49;100091.03;5005791;28;20518;-55
2021/05/21 06:06:12;;;;;;;10.65;3.17;;;;;;;18.59;53.40;100087.91;5043662;28;20037;-55
2021/05/21 06:08:37;;;;;;;11.55;3.13;;;;;;;18.54;53.38;100075.53;5032365;28;20041;-57
2021/05/21 06:11:03;;;;;;;12.85;3.40;;;;;;;18.56;52.70;100084.00;5032845;28;20056;-55
2021/05/21 06:13:28;;;;;;;13.88;3.00;;;;;;;18.57;52.44;100084.81;5029812;28;20048;-51
2021/05/21 06:15:53;;;;;;;9.23;2.80;;;;;;;18.59;52.72;100069.06;5026671;28;20040;-55
2021/05/21 06:18:19;;;;;;;11.18;3.17;;;;;;;18.53;52.22;100073.16;5030864;28;20041;-54
2021/05/21 06:20:44;;;;;;;10.98;3.67;;;;;;;18.50;51.85;100073.88;5034824;28;20117;-56
2021/05/21 06:23:10;;;;;;;11.10;3.22;;;;;;;18.52;52.28;100066.25;5014571;28;20488;-56
2021/05/21 06:28:09;;;;;;;;;;;;;;;18.59;51.86;100072.56;5029629;28;20522;-57
2021/05/21 06:30:35;;;;;;;12.80;3.73;;;;;;;18.53;52.17;100068.56;5028409;28;19991;-54
2021/05/21 06:33:00;;;;;;;8.60;2.85;;;;;;;18.50;52.13;100071.97;5018852;28;20038;-54
2021/05/21 06:35:29;;;;;;;10.07;3.30;;;;;;;18.46;51.83;100070.31;5034170;28;20526;-55
2021/05/21 06:37:54;;;;;;;8.32;3.22;;;;;;;18.45;51.64;100071.44;5023360;28;20038;-56
2021/05/21 06:40:20;;;;;;;13.05;3.40;;;;;;;18.43;51.32;100079.88;5031106;28;20051;-55
2021/05/21 06:42:45;;;;;;;10.60;3.13;;;;;;;18.42;50.91;100072.13;4991630;28;20042;-54
2021/05/21 06:45:11;;;;;;;9.40;3.10;;;;;;;18.43;51.61;100074.50;4990089;28;20488;-57
2021/05/21 06:47:37;;;;;;;12.18;3.50;;;;;;;18.52;53.25;100075.09;4982006;28;20045;-56
2021/05/21 06:50:03;;;;;;;12.38;3.45;;;;;;;18.46;52.72;100071.09;5000282;28;20048;-57
2021/05/21 06:52:28;;;;;;;13.43;3.78;;;;;;;18.44;52.17;100077.97;4986046;28;20053;-57
2021/05/21 06:54:54;;;;;;;16.35;2.95;;;;;;;18.40;52.21;100071.72;4996389;28;20047;-51
2021/05/21 06:57:19;;;;;;;12.38;3.10;;;;;;;18.41;52.11;100057.94;5015097;28;20431;-51
2021/05/21 06:59:45;;;;;;;16.85;3.45;;;;;;;18.45;51.64;100064.16;5005610;28;20038;-50
2021/05/21 07:02:10;;;;;;;18.88;3.28;;;;;;;18.54;52.54;100058.59;5007144;28;20042;-50
2021/05/21 07:04:36;;;;;;;15.43;3.83;;;;;;;18.54;51.96;100055.91;5002925;28;20030;-51
2021/05/21 07:07:01;;;;;;;17.77;3.83;;;;;;;18.57;52.30;100066.75;5023029;28;20623;-50
2021/05/21 07:09:27;;;;;;;16.55;3.63;;;;;;;18.53;51.39;100062.41;5006605;28;20044;-50
2021/05/21 07:11:52;;;;;;;13.55;4.30;;;;;;;18.52;51.28;100060.88;4982071;28;20038;-48
2021/05/21 07:14:17;;;;;;;19.23;3.38;;;;;;;18.49;51.30;100064.25;5028482;28;20048;-52
2021/05/21 07:16:43;;;;;;;13.60;3.40;;;;;;;18.48;50.77;100065.38;5023109;28;20033;-52
2021/05/21 07:19:10;;;;;;;14.45;3.83;;;;;;;18.49;50.88;100069.66;5019544;28;20739;-46
2021/05/21 07:21:36;;;;;;;13.07;3.50;;;;;;;18.49;50.67;100065.03;5027830;28;20041;-52
2021/05/21 07:24:01;;;;;;;11.65;3.47;;;;;;;18.53;50.56;100092.00;5024206;28;20148;-52
2021/05/21 07:26:28;;;;;;;14.02;3.78;;;;;;;18.51;50.56;100064.69;5028863;28;20364;-54
2021/05/21 07:28:54;;;;;;;12.18;3.35;;;;;;;18.50;50.12;100073.88;5013960;28;20042;-47
2021/05/21 07:31:19;;;;;;;13.77;3.72;;;;;;;18.52;50.68;100066.25;4987165;28;20049;-52
2021/05/21 07:33:45;;;;;;;11.35;3.40;;;;;;;18.46;50.71;100060.34;5001764;28;20065;-47
2021/05/21 07:36:10;;;;;;;13.68;3.33;;;;;;;18.48;50.99;100066.16;4969544;28;20037;-53
2021/05/21 07:38:36;;;;;;;12.68;2.83;;;;;;;18.50;50.90;100060.41;5013014;28;20144;-51
2021/05/21 07:41:02;;;;;;;11.27;3.42;;;;;;;18.48;50.71;100055.41;5007491;28;20096;-50
2021/05/21 07:43:27;;;;;;;17.00;3.65;;;;;;;18.47;50.70;100050.38;5014173;28;20060;-47
2021/05/21 07:45:53;;;;;;;14.88;3.67;;;;;;;18.46;49.98;100057.66;5003565;28;20033;-48
2021/05/21 07:48:18;;;;;;;15.40;3.40;;;;;;;18.47;50.56;100053.81;5008575;28;20078;-50
2021/05/21 07:50:44;;;;;;;12.85;3.40;;;;;;;18.47;50.44;100050.38;5022262;28;20870;-45
2021/05/21 07:53:12;;;;;;;9.40;3.42;;;;;;;18.39;50.15;100052.09;5018392;28;20087;-48
2021/05/21 07:55:38;;;;;;;11.85;3.45;;;;;;;18.47;50.42;100059.19;5016227;28;20035;-51
2021/05/21 07:58:04;;;;;;;12.27;3.45;;;;;;;18.46;50.61;100057.66;5001721;28;20038;-49
2021/05/21 08:00:29;;;;;;;13.70;3.50;;;;;;;18.51;50.52;100062.78;5003373;28;20041;-50
2021/05/21 08:02:55;;;;;;;14.35;4.00;;;;;;;18.53;50.51;100057.03;4993795;28;20048;-49
2021/05/21 08:05:20;;;;;;;9.50;2.90;;;;;;;18.55;50.76;100065.53;5008767;28;20056;-51
2021/05/21 08:07:45;;;;;;;12.00;3.10;;;;;;;18.56;50.83;100072.47;5015790;28;20034;-49
2021/05/21 08:10:11;;;;;;;9.75;3.28;;;;;;;18.58;51.03;100067.53;4998388;28;20444;-53
2021/05/21 08:12:36;;;;;;;11.13;3.35;;;;;;;18.58;51.20;100070.97;5017665;28;20042;-53
2021/05/21 08:15:02;;;;;;;8.93;3.13;;;;;;;18.59;51.10;100053.72;4994602;28;20563;-48
2021/05/21 08:17:32;;;;;;;14.07;3.15;;;;;;;18.58;50.86;100052.16;5008979;28;20454;-51
2021/05/21 08:19:58;;;;;;;8.88;3.20;;;;;;;18.64;51.20;100060.72;4999376;28;20093;-47
2021/05/21 08:22:23;;;;;;;8.00;2.97;;;;;;;18.62;50.73;100069.16;5004858;28;20416;-48
2021/05/21 08:24:49;;;;;;;8.05;2.63;;;;;;;18.47;50.69;100059.19;5006023;28;20056;-48
2021/05/21 08:27:14;;;;;;;6.72;2.63;;;;;;;18.51;51.00;100051.22;5011180;28;20414;-52
2021/05/21 08:29:40;;;;;;;8.00;2.72;;;;;;;18.56;50.40;100048.25;5012692;28;20041;-51
2021/05/21 08:32:05;;;;;;;9.40;2.97;;;;;;;18.52;50.74;100050.91;4991076;28;20695;-50
2021/05/21 08:34:30;;;;;;;9.43;2.60;;;;;;;18.53;50.98;100052.44;5009327;28;20037;-53
2021/05/21 08:36:56;;;;;;;7.28;2.55;;;;;;;18.55;50.73;100044.03;5016676;28;20041;-53
2021/05/21 08:39:22;;;;;;;7.28;2.67;;;;;;;18.60;50.76;100036.44;5037488;28;20056;-51
2021/05/21 08:41:49;;;;;;;9.15;2.65;;;;;;;18.60;50.86;100036.44;4975662;28;20088;-51
2021/05/21 08:44:15;;;;;;;9.35;2.92;;;;;;;18.59;51.03;100037.56;5003539;28;20058;-51
2021/05/21 08:46:40;;;;;;;8.52;3.13;;;;;;;18.57;50.97;100033.69;4992103;28;20548;-46
2021/05/21 08:49:05;;;;;;;9.10;3.05;;;;;;;18.69;51.76;100036.22;5001199;28;20042;-51
2021/05/21 08:51:31;;;;;;;9.98;2.78;;;;;;;18.77;51.66;100056.78;5011463;28;20100;-51
2021/05/21 08:53:57;;;;;;;8.93;2.70;;;;;;;18.81;52.04;100058.38;4995598;28;20041;-50
2021/05/21 08:56:22;;;;;;;8.13;2.45;;;;;;;18.90;52.31;100050.09;4982703;28;20125;-46
2021/05/21 08:58:48;;;;;;;7.18;2.88;;;;;;;18.99;52.07;100045.25;4986852;28;20057;-50
2021/05/21 09:01:13;;;;;;;11.88;3.17;;;;;;;19.05;52.44;100037.66;4994103;28;20036;-50
2021/05/21 09:03:39;;;;;;;9.30;3.28;;;;;;;19.00;52.30;100049.50;4986216;28;20099;-55
2021/05/21 09:09:01;;;;;;;8.73;2.70;;;;;;;19.00;52.00;100048.72;5014783;28;20517;-49
2021/05/21 09:11:34;;;;;;;6.50;2.65;;;;;;;18.99;52.05;100025.66;5011072;28;20663;-50
2021/05/21 09:14:16;;;;;;;6.80;3.35;;;;;;;19.04;52.09;100068.44;4987631;28;20038;-52
2021/05/21 09:16:42;;;;;;;7.57;2.75;;;;;;;19.06;51.78;100058.06;5001392;28;20136;-51
2021/05/21 09:19:15;;;;;;;9.40;2.83;;;;;;;19.05;51.61;100053.81;4991903;28;20117;-50
2021/05/21 09:22:05;;;;;;;8.82;3.45;;;;;;;19.21;51.49;100047.19;4996324;28;20137;-50
2021/05/21 09:24:42;;;;;;;7.53;2.83;;;;;;;19.32;51.25;100050.84;5010115;28;20136;-50
2021/05/21 09:27:08;;;;;;;6.97;2.70;;;;;;;19.38;51.35;100049.44;5001008;28;20117;-51
2021/05/21 09:29:43;;;;;;;6.78;2.58;;;;;;;19.45;50.96;100068.44;5004442;28;20658;-51
2021/05/21 09:32:15;;;;;;;6.28;2.75;;;;;;;19.45;51.46;100057.66;4992259;28;20046;-54
2021/05/21 09:34:40;;;;;;;6.40;2.47;;;;;;;19.46;51.35;100061.13;5002254;28;20449;-54
2021/05/21 09:37:06;;;;;;;4.55;2.25;;;;;;;19.49;50.74;100065.78;5016294;28;20041;-53
2021/05/21 09:39:31;;;;;;;4.72;2.25;;;;;;;19.48;50.89;100070.41;5014381;28;20765;-50
2021/05/21 09:41:57;;;;;;;4.53;2.30;;;;;;;19.52;50.69;100060.47;5001801;28;20042;-48
2021/05/21 09:44:23;;;;;;;5.80;2.67;;;;;;;19.56;50.72;100052.47;5000593;28;20042;-51
2021/05/21 09:46:50;;;;;;;7.07;2.88;;;;;;;19.58;50.36;100050.19;5000367;28;20032;-48
2021/05/21 09:49:26;;;;;;;7.25;3.00;;;;;;;19.58;50.41;100050.19;5001790;28;20094;-52
2021/05/21 09:51:52;;;;;;;10.20;3.53;;;;;;;19.51;50.01;100061.59;5002535;28;20060;-47
2021/05/21 09:54:17;;;;;;;6.80;2.95;;;;;;;19.48;50.15;100054.22;5023332;28;20679;-46
2021/05/21 09:56:59;;;;;;;9.05;2.97;;;;;;;19.28;50.30;100081.56;5020301;28;20034;-51
2021/05/21 09:59:44;;;;;;;8.77;2.85;;;;;;;19.24;50.41;100054.56;5006262;28;20658;-50
2021/05/21 10:02:28;;;;;;;8.65;3.10;;;;;;;19.19;50.75;100067.53;5002853;28;20033;-54
2021/05/21 10:04:54;;;;;;;10.00;3.43;;;;;;;19.24;50.48;100056.47;5025564;28;20057;-50
2021/05/21 10:07:20;;;;;;;10.30;3.13;;;;;;;19.27;50.58;100074.63;4985282;28;20056;-51
2021/05/21 10:09:45;;;;;;;4.72;2.58;;;;;;;19.20;50.28;100044.88;4969674;28;20050;-47
2021/05/21 10:12:11;;;;;;;9.75;3.60;;;;;;;19.15;49.72;100037.09;5002558;28;20042;-48
2021/05/21 10:14:36;;;;;;;8.88;2.92;;;;;;;19.22;50.04;100039.91;4983246;28;20172;-47
2021/05/21 10:17:02;;;;;;;9.15;3.35;;;;;;;19.19;49.66;100014.47;5002758;28;20042;-48
2021/05/21 10:19:27;;;;;;;8.98;3.20;;;;;;;19.24;49.52;100016.84;5006963;28;20077;-50
2021/05/21 10:25:28;;;;;;;8.98;3.13;;;;;;;19.16;49.26;100033.25;4967844;28;20045;-48
2021/05/21 10:27:54;;;;;;;9.50;3.15;;;;;;;19.08;51.30;100035.03;4989488;28;20029;-50
2021/05/21 10:30:21;;;;;;;8.65;2.80;;;;;;;19.16;51.05;100030.56;4985350;28;20046;-51
2021/05/21 10:32:46;;;;;;;9.23;3.13;;;;;;;19.20;51.43;100032.19;4981879;28;20504;-50
2021/05/21 10:35:21;;;;;;;10.75;3.22;;;;;;;19.12;51.43;100025.13;4978079;28;20052;-49
2021/05/21 10:37:47;;;;;;;;;;;;;;;19.15;51.36;100026.31;4986751;28;20608;-50
2021/05/21 10:40:25;;;;;;;6.32;2.70;;;;;;;19.16;51.37;100020.56;4996269;28;19929;-51
2021/05/21 10:42:51;;;;;;;10.93;3.22;;;;;;;19.18;51.17;100026.34;5018284;28;20042;-49
2021/05/21 10:45:21;;;;;;;7.63;3.03;;;;;;;19.12;50.77;100021.66;5007077;28;20044;-49
2021/05/21 10:47:50;;;;;;;12.25;3.40;;;;;;;19.09;51.32;100038.50;4983118;28;20037;-46
2021/05/21 10:50:17;;;;;;;10.77;3.20;;;;;;;19.15;51.44;100029.00;5001397;28;20120;-51
2021/05/21 10:52:53;;;;;;;10.55;3.22;;;;;;;19.15;51.48;100013.63;5014841;28;20859;-50
2021/05/21 10:55:19;;;;;;;9.02;3.10;;;;;;;19.22;51.13;100012.97;4992826;28;20065;-49
2021/05/21 10:57:58;;;;;;;10.88;2.95;;;;;;;19.28;51.49;100025.00;5024032;28;20037;-56
2021/05/21 11:00:24;;;;;;;11.27;3.00;;;;;;;19.38;51.62;100019.81;5011962;28;20049;-50
2021/05/21 11:02:49;;;;;;;8.18;2.80;;;;;;;19.47;51.21;100016.88;5003061;28;20041;-48
2021/05/21 11:05:22;;;;;;;8.07;2.97;;;;;;;19.51;51.15;100031.97;5024512;28;20033;-44
2021/05/21 11:07:52;;;;;;;11.70;2.90;;;;;;;19.59;51.12;100032.09;5020379;28;20503;-47
2021/05/21 11:10:27;;;;;;;7.93;2.92;;;;;;;19.62;50.44;100023.28;5008573;28;20071;-51
2021/05/21 11:13:00;;;;;;;9.52;3.30;;;;;;;19.69;49.66;100018.00;5007713;28;20583;-52
2021/05/21 11:15:47;;;;;;;12.00;3.28;;;;;;;19.72;50.19;100015.34;4992085;28;20076;-57
2021/05/21 11:18:25;;;;;;;12.10;3.13;;;;;;;19.68;49.85;100011.03;5016265;28;20034;-58
2021/05/21 11:20:58;;;;;;;8.80;2.60;;;;;;;19.65;49.75;99998.28;4989699;28;20034;-58
2021/05/21 11:23:25;;;;;;;10.50;2.78;;;;;;;19.68;49.64;99989.47;5001863;28;20781;-58
2021/05/21 11:26:09;;;;;;;9.27;2.72;;;;;;;19.63;49.77;99993.25;5019982;28;20044;-59
2021/05/21 11:28:57;;;;;;;13.00;2.95;;;;;;;19.65;50.15;99987.50;5021386;28;20080;-58
2021/05/21 11:31:27;;;;;;;11.98;3.47;;;;;;;19.60;50.11;100009.38;5004448;28;20207;-58